LJLJ/LJU METAR and TAF weather

Enter ICAO airport designator
Station Type Date Time Source
LJLJ METAR 2022/08/13 13:00 UTC NOAA

LJLJ 131300Z 28004KT 210V320 9999 FEW013 SCT070 BKN090 18/16 Q1015 NOSIG


Station Type Date Time Source
LJLJ Decoded METAR 2022/08/13 13:00 UTC NOAA

Ljubljana / Brnik, Slovenia (LJLJ) 46-13N 014-29E 362M
Aug 13, 2022 - 09:00 AM EDT / 2022.08.13 1300 UTC
Wind: from the W (280 degrees) at 5 MPH (4 KT) (direction variable):0
Visibility: greater than 7 mile(s):0
Sky conditions: mostly cloudy
Temperature: 64 F (18 C)
Dew Point: 60 F (16 C)
Relative Humidity: 88%
Pressure (altimeter): 29.97 in. Hg (1015 hPa)
ob: LJLJ 131300Z 28004KT 210V320 9999 FEW013 SCT070 BKN090 18/16 Q1015 NOSIG
cycle: 13

Station Type Date Time Source
LJLJ TAF 2022/08/13 12:06 UTC NOAA

TAF LJLJ 131100Z 1312/1412 30005KT 9999 SCT055 BKN085
TEMPO 1312/1316 -RA

Example: see airport list